Issaquah, WA

12:45 AM PST on February 12, 2016 (GMT -0800)
Front Street | | Change Station
CLOSE
Current Station
Personal Weather Station
Location: Issaquah, WA
Elevation: 92 ft
Nearby Weather Stations

Elev 92 ft 47.53 °N, 122.04 °W | Updated 5 minutes ago

Rain
Rain
50.9 °F
Feels Like 50.9 °F
N
0.0
Wind Variable Wind from SSE
Gusts 0.0 mph

Today
High -- | Low -- °F
--% Chance of Precip.
Yesterday
High -- | Low -- °F
Precip. -- in
Pressure 30.08 in
Visibility 2.0 miles
Clouds Few 1900 ft
Few 2400 ft
Overcast 4100 ft
Dew Point 50 °F
Humidity 97%
Rainfall 0.54 in
Snow Depth Not available.
7:19 AM 5:26 PM
Waxing Crescent, 18% visible
SPECI KRNT 120840Z AUTO 16003KT 2SM -RA BR FEW019 FEW024 OVC041 12/10 A3008 RMK AO2 P0022 T01170100 TSNO
Pressure 30.08 in
Visibility 2.0 miles
Clouds Few 1900 ft
Few 2400 ft
Overcast 4100 ft
Dew Point 50 °F
Humidity 97%
Rainfall 0.54 in
Snow Depth Not available.
7:19 AM 5:26 PM
Waxing Crescent, 18% visible
SPECI KRNT 120840Z AUTO 16003KT 2SM -RA BR FEW019 FEW024 OVC041 12/10 A3008 RMK AO2 P0022 T01170100 TSNO

10-Day Weather Forecast

Almanac

Astronomy

Feb. 12, 2016 Rise Set
Actual Time
Civil Twilight
Nautical Twilight
Astronomical Twilight
Moon
Length of Visible Light
Length of Day
Tomorrow will be .
, % of the Moon is Illuminated

Today's Extremes

State Highs State Lows

Community

WunderPhotos

Upload Photos

1,892,284 photos uploaded!

WunderBlog® & News

Nearby

Air Quality

  Air Quality AQ Index Pollutant
Not available.

Snow Depth

Station Depth Elevation

Earthquake Activity

City Distance Mag. Time & Date
Minimum magnitude displayed is 2.5.

Coastal Water Temperatures

Place Temperature

Stations

Nearby Weather Stations

Station Location Temp. Windchill Dew Point Humidity Wind Precip. Elev Updated Type
                   

Watches & Warnings

There are currently no watches in effect.